sensor_id;sensor_type;location;lat;lon;timestamp;P1;durP1;ratioP1;P2;durP2;ratioP2
19998;SDS011;10160;50.926;4.374;2022-12-13T00:01:55;44.40;;;23.13;;
19998;SDS011;10160;50.926;4.374;2022-12-13T00:04:22;52.33;;;24.00;;
19998;SDS011;10160;50.926;4.374;2022-12-13T00:06:48;45.50;;;22.50;;
19998;SDS011;10160;50.926;4.374;2022-12-13T00:09:15;50.10;;;22.27;;
19998;SDS011;10160;50.926;4.374;2022-12-13T00:11:42;47.03;;;21.77;;
19998;SDS011;10160;50.926;4.374;2022-12-13T00:14:08;49.30;;;22.80;;
19998;SDS011;10160;50.926;4.374;2022-12-13T00:16:35;48.10;;;23.30;;
19998;SDS011;10160;50.926;4.374;2022-12-13T00:19:02;46.23;;;23.33;;
19998;SDS011;10160;50.926;4.374;2022-12-13T00:21:28;52.40;;;24.73;;
19998;SDS011;10160;50.926;4.374;2022-12-13T00:23:55;49.37;;;23.67;;
19998;SDS011;10160;50.926;4.374;2022-12-13T00:26:23;45.27;;;22.27;;
19998;SDS011;10160;50.926;4.374;2022-12-13T00:28:50;48.53;;;21.80;;
19998;SDS011;10160;50.926;4.374;2022-12-13T00:31:18;47.33;;;22.40;;
19998;SDS011;10160;50.926;4.374;2022-12-13T00:33:45;57.90;;;24.80;;
19998;SDS011;10160;50.926;4.374;2022-12-13T00:36:11;49.60;;;22.93;;
19998;SDS011;10160;50.926;4.374;2022-12-13T00:38:37;45.03;;;21.83;;
19998;SDS011;10160;50.926;4.374;2022-12-13T00:41:10;49.50;;;23.33;;
19998;SDS011;10160;50.926;4.374;2022-12-13T00:43:40;44.53;;;22.47;;
19998;SDS011;10160;50.926;4.374;2022-12-13T00:46:07;47.60;;;23.87;;
19998;SDS011;10160;50.926;4.374;2022-12-13T00:48:40;51.83;;;24.03;;
19998;SDS011;10160;50.926;4.374;2022-12-13T00:51:07;47.37;;;22.77;;
19998;SDS011;10160;50.926;4.374;2022-12-13T00:53:34;58.33;;;24.80;;
19998;SDS011;10160;50.926;4.374;2022-12-13T00:56:00;51.70;;;24.47;;
19998;SDS011;10160;50.926;4.374;2022-12-13T00:58:26;46.50;;;22.23;;
19998;SDS011;10160;50.926;4.374;2022-12-13T01:00:51;50.63;;;24.43;;
19998;SDS011;10160;50.926;4.374;2022-12-13T01:03:17;49.70;;;22.83;;
19998;SDS011;10160;50.926;4.374;2022-12-13T01:05:49;51.80;;;23.40;;
19998;SDS011;10160;50.926;4.374;2022-12-13T01:08:15;51.60;;;23.00;;
19998;SDS011;10160;50.926;4.374;2022-12-13T01:10:44;56.10;;;25.07;;
19998;SDS011;10160;50.926;4.374;2022-12-13T01:13:11;49.20;;;23.90;;
19998;SDS011;10160;50.926;4.374;2022-12-13T01:15:44;56.10;;;24.13;;
19998;SDS011;10160;50.926;4.374;2022-12-13T01:18:11;50.47;;;24.80;;
19998;SDS011;10160;50.926;4.374;2022-12-13T01:20:42;54.20;;;22.40;;
19998;SDS011;10160;50.926;4.374;2022-12-13T01:23:32;53.43;;;23.03;;
19998;SDS011;10160;50.926;4.374;2022-12-13T01:26:00;57.37;;;24.87;;
19998;SDS011;10160;50.926;4.374;2022-12-13T01:28:28;52.87;;;24.53;;
19998;SDS011;10160;50.926;4.374;2022-12-13T01:30:55;51.23;;;24.37;;
19998;SDS011;10160;50.926;4.374;2022-12-13T01:33:22;58.27;;;24.53;;
19998;SDS011;10160;50.926;4.374;2022-12-13T01:35:48;53.77;;;24.97;;
19998;SDS011;10160;50.926;4.374;2022-12-13T01:38:14;52.10;;;23.90;;
19998;SDS011;10160;50.926;4.374;2022-12-13T01:40:46;52.47;;;23.93;;
19998;SDS011;10160;50.926;4.374;2022-12-13T01:43:22;51.67;;;23.43;;
19998;SDS011;10160;50.926;4.374;2022-12-13T01:45:50;50.80;;;25.83;;
19998;SDS011;10160;50.926;4.374;2022-12-13T01:48:17;51.73;;;24.13;;
19998;SDS011;10160;50.926;4.374;2022-12-13T01:50:50;54.30;;;24.47;;
19998;SDS011;10160;50.926;4.374;2022-12-13T01:53:21;51.17;;;24.57;;
19998;SDS011;10160;50.926;4.374;2022-12-13T01:55:52;59.70;;;24.27;;
19998;SDS011;10160;50.926;4.374;2022-12-13T01:58:20;45.03;;;22.40;;
19998;SDS011;10160;50.926;4.374;2022-12-13T02:00:46;53.60;;;23.53;;
19998;SDS011;10160;50.926;4.374;2022-12-13T02:03:13;48.47;;;23.37;;
19998;SDS011;10160;50.926;4.374;2022-12-13T02:06:00;53.50;;;23.53;;
19998;SDS011;10160;50.926;4.374;2022-12-13T02:08:34;49.60;;;24.33;;
19998;SDS011;10160;50.926;4.374;2022-12-13T02:11:02;54.37;;;22.87;;
19998;SDS011;10160;50.926;4.374;2022-12-13T02:13:29;59.90;;;25.27;;
19998;SDS011;10160;50.926;4.374;2022-12-13T02:18:40;56.47;;;25.17;;
19998;SDS011;10160;50.926;4.374;2022-12-13T02:21:26;50.40;;;24.57;;
19998;SDS011;10160;50.926;4.374;2022-12-13T02:24:14;46.17;;;22.80;;
19998;SDS011;10160;50.926;4.374;2022-12-13T02:27:10;46.77;;;22.37;;
19998;SDS011;10160;50.926;4.374;2022-12-13T02:33:10;47.80;;;23.13;;
19998;SDS011;10160;50.926;4.374;2022-12-13T02:35:53;47.83;;;22.47;;
19998;SDS011;10160;50.926;4.374;2022-12-13T02:38:43;45.83;;;21.80;;
19998;SDS011;10160;50.926;4.374;2022-12-13T02:44:13;48.07;;;21.60;;
19998;SDS011;10160;50.926;4.374;2022-12-13T02:46:57;46.27;;;22.57;;
19998;SDS011;10160;50.926;4.374;2022-12-13T02:49:27;44.13;;;21.47;;
19998;SDS011;10160;50.926;4.374;2022-12-13T02:51:58;45.23;;;21.33;;
19998;SDS011;10160;50.926;4.374;2022-12-13T02:54:25;48.87;;;22.73;;
19998;SDS011;10160;50.926;4.374;2022-12-13T02:56:58;42.77;;;21.87;;
19998;SDS011;10160;50.926;4.374;2022-12-13T02:59:26;49.03;;;21.40;;
19998;SDS011;10160;50.926;4.374;2022-12-13T03:05:16;45.80;;;21.60;;
19998;SDS011;10160;50.926;4.374;2022-12-13T03:11:11;46.13;;;21.53;;
19998;SDS011;10160;50.926;4.374;2022-12-13T03:13:56;43.83;;;21.10;;
19998;SDS011;10160;50.926;4.374;2022-12-13T03:18:58;45.63;;;21.00;;
19998;SDS011;10160;50.926;4.374;2022-12-13T03:21:26;45.87;;;21.80;;
19998;SDS011;10160;50.926;4.374;2022-12-13T03:23:52;44.73;;;22.00;;
19998;SDS011;10160;50.926;4.374;2022-12-13T03:26:24;41.67;;;21.13;;
19998;SDS011;10160;50.926;4.374;2022-12-13T03:28:51;42.87;;;20.67;;
19998;SDS011;10160;50.926;4.374;2022-12-13T03:31:17;39.33;;;20.37;;
19998;SDS011;10160;50.926;4.374;2022-12-13T03:33:44;45.90;;;20.17;;
19998;SDS011;10160;50.926;4.374;2022-12-13T03:36:10;46.67;;;20.77;;
19998;SDS011;10160;50.926;4.374;2022-12-13T03:38:36;41.73;;;19.83;;
19998;SDS011;10160;50.926;4.374;2022-12-13T03:41:08;46.80;;;20.10;;
19998;SDS011;10160;50.926;4.374;2022-12-13T03:43:39;40.20;;;20.30;;
19998;SDS011;10160;50.926;4.374;2022-12-13T03:46:05;41.03;;;19.57;;
19998;SDS011;10160;50.926;4.374;2022-12-13T03:48:31;36.97;;;19.30;;
19998;SDS011;10160;50.926;4.374;2022-12-13T03:50:57;40.83;;;20.17;;
19998;SDS011;10160;50.926;4.374;2022-12-13T03:53:23;37.80;;;19.73;;
19998;SDS011;10160;50.926;4.374;2022-12-13T03:55:49;38.20;;;20.00;;
19998;SDS011;10160;50.926;4.374;2022-12-13T03:58:15;42.57;;;20.07;;
19998;SDS011;10160;50.926;4.374;2022-12-13T04:00:41;41.67;;;19.17;;
19998;SDS011;10160;50.926;4.374;2022-12-13T04:03:07;43.67;;;20.30;;
19998;SDS011;10160;50.926;4.374;2022-12-13T04:05:33;39.43;;;19.63;;
19998;SDS011;10160;50.926;4.374;2022-12-13T04:07:59;42.70;;;19.77;;
19998;SDS011;10160;50.926;4.374;2022-12-13T04:10:24;39.43;;;19.50;;
19998;SDS011;10160;50.926;4.374;2022-12-13T04:12:50;43.17;;;19.33;;
19998;SDS011;10160;50.926;4.374;2022-12-13T04:15:34;40.70;;;20.10;;
19998;SDS011;10160;50.926;4.374;2022-12-13T04:18:00;43.33;;;20.10;;
19998;SDS011;10160;50.926;4.374;2022-12-13T04:20:26;40.67;;;18.43;;
19998;SDS011;10160;50.926;4.374;2022-12-13T04:22:52;39.10;;;18.27;;
19998;SDS011;10160;50.926;4.374;2022-12-13T04:25:17;41.60;;;19.33;;
19998;SDS011;10160;50.926;4.374;2022-12-13T04:27:44;42.53;;;19.93;;
19998;SDS011;10160;50.926;4.374;2022-12-13T04:30:10;42.57;;;20.13;;
19998;SDS011;10160;50.926;4.374;2022-12-13T04:32:36;39.23;;;19.47;;
19998;SDS011;10160;50.926;4.374;2022-12-13T04:35:02;38.93;;;18.53;;
19998;SDS011;10160;50.926;4.374;2022-12-13T04:37:29;43.30;;;18.47;;
19998;SDS011;10160;50.926;4.374;2022-12-13T04:39:55;38.00;;;18.03;;
19998;SDS011;10160;50.926;4.374;2022-12-13T04:42:20;41.07;;;19.10;;
19998;SDS011;10160;50.926;4.374;2022-12-13T04:44:46;39.80;;;17.77;;
19998;SDS011;10160;50.926;4.374;2022-12-13T04:47:13;37.67;;;18.53;;
19998;SDS011;10160;50.926;4.374;2022-12-13T04:49:40;39.47;;;18.03;;
19998;SDS011;10160;50.926;4.374;2022-12-13T04:52:05;36.67;;;18.47;;
19998;SDS011;10160;50.926;4.374;2022-12-13T04:54:31;36.70;;;17.73;;
19998;SDS011;10160;50.926;4.374;2022-12-13T04:56:57;39.97;;;18.60;;
19998;SDS011;10160;50.926;4.374;2022-12-13T04:59:23;38.23;;;18.30;;
19998;SDS011;10160;50.926;4.374;2022-12-13T05:01:49;38.57;;;19.23;;
19998;SDS011;10160;50.926;4.374;2022-12-13T05:04:15;40.00;;;18.53;;
19998;SDS011;10160;50.926;4.374;2022-12-13T05:06:40;38.00;;;18.20;;
19998;SDS011;10160;50.926;4.374;2022-12-13T05:09:06;38.07;;;17.80;;
19998;SDS011;10160;50.926;4.374;2022-12-13T05:11:32;38.23;;;18.40;;
19998;SDS011;10160;50.926;4.374;2022-12-13T05:13:58;39.57;;;19.90;;
19998;SDS011;10160;50.926;4.374;2022-12-13T05:16:24;47.87;;;19.77;;
19998;SDS011;10160;50.926;4.374;2022-12-13T05:18:49;37.20;;;18.20;;
19998;SDS011;10160;50.926;4.374;2022-12-13T05:21:15;43.17;;;19.37;;
19998;SDS011;10160;50.926;4.374;2022-12-13T05:23:41;42.70;;;18.73;;
19998;SDS011;10160;50.926;4.374;2022-12-13T05:26:07;38.90;;;18.53;;
19998;SDS011;10160;50.926;4.374;2022-12-13T05:28:32;39.50;;;18.03;;
19998;SDS011;10160;50.926;4.374;2022-12-13T05:31:04;39.60;;;18.00;;
19998;SDS011;10160;50.926;4.374;2022-12-13T05:33:33;33.70;;;17.70;;
19998;SDS011;10160;50.926;4.374;2022-12-13T05:35:58;34.20;;;17.10;;
19998;SDS011;10160;50.926;4.374;2022-12-13T05:38:24;33.60;;;16.70;;
19998;SDS011;10160;50.926;4.374;2022-12-13T05:40:49;32.40;;;16.90;;
19998;SDS011;10160;50.926;4.374;2022-12-13T05:43:15;30.30;;;16.30;;
19998;SDS011;10160;50.926;4.374;2022-12-13T05:45:41;33.23;;;16.80;;
19998;SDS011;10160;50.926;4.374;2022-12-13T05:48:06;38.17;;;16.40;;
19998;SDS011;10160;50.926;4.374;2022-12-13T05:50:33;31.03;;;14.63;;
19998;SDS011;10160;50.926;4.374;2022-12-13T05:52:59;37.07;;;17.37;;
19998;SDS011;10160;50.926;4.374;2022-12-13T05:55:25;32.37;;;16.03;;
19998;SDS011;10160;50.926;4.374;2022-12-13T05:57:51;35.23;;;16.30;;
19998;SDS011;10160;50.926;4.374;2022-12-13T06:00:17;31.70;;;16.23;;
19998;SDS011;10160;50.926;4.374;2022-12-13T06:02:43;32.00;;;16.93;;
19998;SDS011;10160;50.926;4.374;2022-12-13T06:05:09;32.97;;;17.53;;
19998;SDS011;10160;50.926;4.374;2022-12-13T06:07:35;40.60;;;17.83;;
19998;SDS011;10160;50.926;4.374;2022-12-13T06:10:05;37.07;;;16.40;;
19998;SDS011;10160;50.926;4.374;2022-12-13T06:12:33;31.97;;;16.27;;
19998;SDS011;10160;50.926;4.374;2022-12-13T06:14:59;36.37;;;17.10;;
19998;SDS011;10160;50.926;4.374;2022-12-13T06:17:28;34.43;;;16.90;;
19998;SDS011;10160;50.926;4.374;2022-12-13T06:19:58;36.53;;;17.13;;
19998;SDS011;10160;50.926;4.374;2022-12-13T06:22:24;35.20;;;16.30;;
19998;SDS011;10160;50.926;4.374;2022-12-13T06:24:50;33.67;;;17.07;;
19998;SDS011;10160;50.926;4.374;2022-12-13T06:27:16;33.50;;;15.97;;
19998;SDS011;10160;50.926;4.374;2022-12-13T06:29:42;39.83;;;17.57;;
19998;SDS011;10160;50.926;4.374;2022-12-13T06:32:08;38.73;;;16.93;;
19998;SDS011;10160;50.926;4.374;2022-12-13T06:34:35;37.33;;;17.77;;
19998;SDS011;10160;50.926;4.374;2022-12-13T06:37:01;41.87;;;15.70;;
19998;SDS011;10160;50.926;4.374;2022-12-13T06:39:29;38.33;;;17.60;;
19998;SDS011;10160;50.926;4.374;2022-12-13T06:41:55;44.03;;;20.10;;
19998;SDS011;10160;50.926;4.374;2022-12-13T06:44:21;48.90;;;20.37;;
19998;SDS011;10160;50.926;4.374;2022-12-13T06:46:46;50.10;;;20.37;;
19998;SDS011;10160;50.926;4.374;2022-12-13T06:49:12;52.57;;;20.37;;
19998;SDS011;10160;50.926;4.374;2022-12-13T06:51:38;44.27;;;19.70;;
19998;SDS011;10160;50.926;4.374;2022-12-13T06:54:03;45.67;;;20.97;;
19998;SDS011;10160;50.926;4.374;2022-12-13T06:56:29;46.07;;;19.87;;
19998;SDS011;10160;50.926;4.374;2022-12-13T06:58:55;48.63;;;20.80;;
19998;SDS011;10160;50.926;4.374;2022-12-13T07:01:21;43.93;;;21.10;;
19998;SDS011;10160;50.926;4.374;2022-12-13T07:03:47;49.60;;;21.13;;
19998;SDS011;10160;50.926;4.374;2022-12-13T07:06:16;43.23;;;20.37;;
19998;SDS011;10160;50.926;4.374;2022-12-13T07:08:46;47.23;;;21.17;;
19998;SDS011;10160;50.926;4.374;2022-12-13T07:11:14;47.50;;;21.70;;
19998;SDS011;10160;50.926;4.374;2022-12-13T07:13:41;46.47;;;19.80;;
19998;SDS011;10160;50.926;4.374;2022-12-13T07:16:08;46.50;;;20.80;;
19998;SDS011;10160;50.926;4.374;2022-12-13T07:18:34;54.17;;;23.70;;
19998;SDS011;10160;50.926;4.374;2022-12-13T07:21:02;47.77;;;22.20;;
19998;SDS011;10160;50.926;4.374;2022-12-13T07:23:33;52.13;;;23.43;;
19998;SDS011;10160;50.926;4.374;2022-12-13T07:25:59;50.37;;;23.83;;
19998;SDS011;10160;50.926;4.374;2022-12-13T07:28:25;51.00;;;24.37;;
19998;SDS011;10160;50.926;4.374;2022-12-13T07:30:51;42.27;;;21.47;;
19998;SDS011;10160;50.926;4.374;2022-12-13T07:33:16;41.63;;;20.57;;
19998;SDS011;10160;50.926;4.374;2022-12-13T07:35:42;40.00;;;20.07;;
19998;SDS011;10160;50.926;4.374;2022-12-13T07:38:08;44.87;;;19.63;;
19998;SDS011;10160;50.926;4.374;2022-12-13T07:40:35;42.27;;;19.60;;
19998;SDS011;10160;50.926;4.374;2022-12-13T07:43:03;40.10;;;19.50;;
19998;SDS011;10160;50.926;4.374;2022-12-13T07:45:30;45.70;;;19.70;;
19998;SDS011;10160;50.926;4.374;2022-12-13T07:47:57;39.00;;;18.40;;
19998;SDS011;10160;50.926;4.374;2022-12-13T07:50:23;42.57;;;18.53;;
19998;SDS011;10160;50.926;4.374;2022-12-13T07:52:49;41.10;;;19.47;;
19998;SDS011;10160;50.926;4.374;2022-12-13T07:55:16;40.00;;;18.30;;
19998;SDS011;10160;50.926;4.374;2022-12-13T07:57:45;37.50;;;19.30;;
19998;SDS011;10160;50.926;4.374;2022-12-13T08:00:11;41.57;;;18.43;;
19998;SDS011;10160;50.926;4.374;2022-12-13T08:02:38;46.40;;;19.20;;
19998;SDS011;10160;50.926;4.374;2022-12-13T08:05:05;41.03;;;19.50;;
19998;SDS011;10160;50.926;4.374;2022-12-13T08:07:31;44.90;;;20.60;;
19998;SDS011;10160;50.926;4.374;2022-12-13T08:09:56;47.10;;;22.60;;
19998;SDS011;10160;50.926;4.374;2022-12-13T08:12:22;54.57;;;24.33;;
19998;SDS011;10160;50.926;4.374;2022-12-13T08:14:47;74.57;;;31.50;;
19998;SDS011;10160;50.926;4.374;2022-12-13T08:17:13;88.43;;;35.10;;
19998;SDS011;10160;50.926;4.374;2022-12-13T08:19:39;73.70;;;30.57;;
19998;SDS011;10160;50.926;4.374;2022-12-13T08:22:04;51.13;;;24.20;;
19998;SDS011;10160;50.926;4.374;2022-12-13T08:24:30;58.73;;;25.43;;
19998;SDS011;10160;50.926;4.374;2022-12-13T08:26:57;48.20;;;22.10;;
19998;SDS011;10160;50.926;4.374;2022-12-13T08:29:28;43.13;;;19.43;;
19998;SDS011;10160;50.926;4.374;2022-12-13T08:31:54;46.33;;;21.33;;
19998;SDS011;10160;50.926;4.374;2022-12-13T08:34:20;51.03;;;21.77;;
19998;SDS011;10160;50.926;4.374;2022-12-13T08:36:45;49.17;;;22.90;;
19998;SDS011;10160;50.926;4.374;2022-12-13T08:39:11;52.30;;;21.07;;
19998;SDS011;10160;50.926;4.374;2022-12-13T08:41:37;46.83;;;22.07;;
19998;SDS011;10160;50.926;4.374;2022-12-13T08:44:02;52.63;;;21.90;;
19998;SDS011;10160;50.926;4.374;2022-12-13T08:46:28;46.77;;;23.70;;
19998;SDS011;10160;50.926;4.374;2022-12-13T08:48:54;42.20;;;19.87;;
19998;SDS011;10160;50.926;4.374;2022-12-13T08:51:19;34.40;;;17.63;;
19998;SDS011;10160;50.926;4.374;2022-12-13T08:53:49;32.97;;;17.97;;
19998;SDS011;10160;50.926;4.374;2022-12-13T08:56:15;37.03;;;18.13;;
19998;SDS011;10160;50.926;4.374;2022-12-13T08:58:42;35.13;;;19.37;;
19998;SDS011;10160;50.926;4.374;2022-12-13T09:01:08;42.77;;;18.37;;
19998;SDS011;10160;50.926;4.374;2022-12-13T09:03:35;33.00;;;16.73;;
19998;SDS011;10160;50.926;4.374;2022-12-13T09:06:12;32.90;;;16.13;;
19998;SDS011;10160;50.926;4.374;2022-12-13T09:08:40;31.77;;;16.50;;
19998;SDS011;10160;50.926;4.374;2022-12-13T09:11:08;31.50;;;16.23;;
19998;SDS011;10160;50.926;4.374;2022-12-13T09:13:35;31.83;;;16.33;;
19998;SDS011;10160;50.926;4.374;2022-12-13T09:16:05;30.77;;;16.00;;
19998;SDS011;10160;50.926;4.374;2022-12-13T09:18:34;32.30;;;16.17;;
19998;SDS011;10160;50.926;4.374;2022-12-13T09:21:04;30.97;;;16.87;;
19998;SDS011;10160;50.926;4.374;2022-12-13T09:23:34;34.30;;;16.43;;
19998;SDS011;10160;50.926;4.374;2022-12-13T09:26:00;35.07;;;17.53;;
19998;SDS011;10160;50.926;4.374;2022-12-13T09:28:29;35.10;;;16.97;;
19998;SDS011;10160;50.926;4.374;2022-12-13T09:30:55;34.80;;;16.63;;
19998;SDS011;10160;50.926;4.374;2022-12-13T09:33:21;35.77;;;16.53;;
19998;SDS011;10160;50.926;4.374;2022-12-13T09:35:47;31.33;;;15.73;;
19998;SDS011;10160;50.926;4.374;2022-12-13T09:38:13;32.00;;;15.67;;
19998;SDS011;10160;50.926;4.374;2022-12-13T09:40:39;34.20;;;16.83;;
19998;SDS011;10160;50.926;4.374;2022-12-13T09:43:09;35.77;;;17.03;;
19998;SDS011;10160;50.926;4.374;2022-12-13T09:45:56;32.77;;;16.97;;
19998;SDS011;10160;50.926;4.374;2022-12-13T09:48:23;32.97;;;16.40;;
19998;SDS011;10160;50.926;4.374;2022-12-13T09:50:49;30.87;;;17.20;;
19998;SDS011;10160;50.926;4.374;2022-12-13T09:53:16;32.90;;;17.00;;
19998;SDS011;10160;50.926;4.374;2022-12-13T09:55:44;31.27;;;17.23;;
19998;SDS011;10160;50.926;4.374;2022-12-13T09:58:22;33.80;;;16.50;;
19998;SDS011;10160;50.926;4.374;2022-12-13T10:00:54;32.20;;;16.20;;
19998;SDS011;10160;50.926;4.374;2022-12-13T10:03:21;39.50;;;17.07;;
19998;SDS011;10160;50.926;4.374;2022-12-13T10:05:59;31.23;;;16.60;;
19998;SDS011;10160;50.926;4.374;2022-12-13T10:08:39;30.30;;;15.73;;
19998;SDS011;10160;50.926;4.374;2022-12-13T10:11:12;27.00;;;15.10;;
19998;SDS011;10160;50.926;4.374;2022-12-13T10:13:40;29.87;;;15.10;;
19998;SDS011;10160;50.926;4.374;2022-12-13T10:16:15;38.73;;;15.97;;
19998;SDS011;10160;50.926;4.374;2022-12-13T10:18:47;28.90;;;15.10;;
19998;SDS011;10160;50.926;4.374;2022-12-13T10:21:21;27.93;;;15.57;;
19998;SDS011;10160;50.926;4.374;2022-12-13T10:23:51;30.53;;;15.60;;
19998;SDS011;10160;50.926;4.374;2022-12-13T10:26:17;26.97;;;14.70;;
19998;SDS011;10160;50.926;4.374;2022-12-13T10:28:43;29.30;;;14.40;;
19998;SDS011;10160;50.926;4.374;2022-12-13T10:31:18;27.67;;;14.77;;
19998;SDS011;10160;50.926;4.374;2022-12-13T10:33:52;27.67;;;15.37;;
19998;SDS011;10160;50.926;4.374;2022-12-13T10:36:33;29.43;;;15.50;;
19998;SDS011;10160;50.926;4.374;2022-12-13T10:39:02;26.47;;;14.97;;
19998;SDS011;10160;50.926;4.374;2022-12-13T10:44:39;26.37;;;13.83;;
19998;SDS011;10160;50.926;4.374;2022-12-13T10:49:16;38.13;;;21.90;;
19998;SDS011;10160;50.926;4.374;2022-12-13T10:51:47;27.20;;;15.37;;
19998;SDS011;10160;50.926;4.374;2022-12-13T10:54:16;27.43;;;15.73;;
19998;SDS011;10160;50.926;4.374;2022-12-13T10:56:48;27.63;;;14.57;;
19998;SDS011;10160;50.926;4.374;2022-12-13T11:02:00;22.30;;;13.40;;
19998;SDS011;10160;50.926;4.374;2022-12-13T11:04:46;27.43;;;14.37;;
19998;SDS011;10160;50.926;4.374;2022-12-13T11:07:45;21.83;;;13.07;;
19998;SDS011;10160;50.926;4.374;2022-12-13T11:12:47;23.35;;;13.27;;
19998;SDS011;10160;50.926;4.374;2022-12-13T11:15:18;25.73;;;14.75;;
19998;SDS011;10160;50.926;4.374;2022-12-13T11:17:50;24.02;;;14.40;;
19998;SDS011;10160;50.926;4.374;2022-12-13T11:20:20;24.33;;;13.07;;
19998;SDS011;10160;50.926;4.374;2022-12-13T11:22:48;28.40;;;14.83;;
19998;SDS011;10160;50.926;4.374;2022-12-13T11:25:27;23.87;;;13.67;;
19998;SDS011;10160;50.926;4.374;2022-12-13T11:33:26;28.30;;;13.50;;
19998;SDS011;10160;50.926;4.374;2022-12-13T11:41:42;28.97;;;15.13;;
19998;SDS011;10160;50.926;4.374;2022-12-13T11:44:18;25.00;;;14.17;;
19998;SDS011;10160;50.926;4.374;2022-12-13T11:47:07;30.67;;;14.33;;
19998;SDS011;10160;50.926;4.374;2022-12-13T11:49:41;24.63;;;13.20;;
19998;SDS011;10160;50.926;4.374;2022-12-13T11:57:12;28.70;;;15.63;;
19998;SDS011;10160;50.926;4.374;2022-12-13T12:00:16;30.33;;;15.53;;
19998;SDS011;10160;50.926;4.374;2022-12-13T12:03:04;32.27;;;15.97;;
19998;SDS011;10160;50.926;4.374;2022-12-13T12:05:34;29.60;;;16.20;;
19998;SDS011;10160;50.926;4.374;2022-12-13T12:10:42;29.77;;;14.90;;
19998;SDS011;10160;50.926;4.374;2022-12-13T12:13:27;26.30;;;14.60;;
19998;SDS011;10160;50.926;4.374;2022-12-13T12:19:13;31.80;;;15.83;;
19998;SDS011;10160;50.926;4.374;2022-12-13T12:24:20;31.47;;;16.40;;
19998;SDS011;10160;50.926;4.374;2022-12-13T12:43:41;35.00;;;14.97;;
19998;SDS011;10160;50.926;4.374;2022-12-13T12:52:38;32.43;;;15.80;;
19998;SDS011;10160;50.926;4.374;2022-12-13T12:55:16;40.17;;;17.27;;
19998;SDS011;10160;50.926;4.374;2022-12-13T13:00:46;26.07;;;14.23;;
19998;SDS011;10160;50.926;4.374;2022-12-13T13:03:23;27.43;;;14.70;;
19998;SDS011;10160;50.926;4.374;2022-12-13T13:11:06;35.33;;;15.33;;
19998;SDS011;10160;50.926;4.374;2022-12-13T13:13:42;33.07;;;15.57;;
19998;SDS011;10160;50.926;4.374;2022-12-13T13:26:36;34.03;;;16.70;;
19998;SDS011;10160;50.926;4.374;2022-12-13T13:29:20;32.23;;;14.47;;
19998;SDS011;10160;50.926;4.374;2022-12-13T13:34:36;33.83;;;17.20;;
19998;SDS011;10160;50.926;4.374;2022-12-13T13:37:04;35.33;;;17.47;;
19998;SDS011;10160;50.926;4.374;2022-12-13T14:12:45;30.27;;;14.50;;
19998;SDS011;10160;50.926;4.374;2022-12-13T14:15:50;32.20;;;15.20;;
19998;SDS011;10160;50.926;4.374;2022-12-13T14:30:14;31.80;;;14.13;;
19998;SDS011;10160;50.926;4.374;2022-12-13T14:32:44;34.43;;;15.63;;
19998;SDS011;10160;50.926;4.374;2022-12-13T14:37:53;37.23;;;16.40;;
19998;SDS011;10160;50.926;4.374;2022-12-13T14:40:33;32.37;;;15.30;;
19998;SDS011;10160;50.926;4.374;2022-12-13T14:43:01;33.27;;;16.90;;
19998;SDS011;10160;50.926;4.374;2022-12-13T14:45:29;29.03;;;14.97;;
19998;SDS011;10160;50.926;4.374;2022-12-13T14:47:58;33.23;;;14.47;;
19998;SDS011;10160;50.926;4.374;2022-12-13T14:50:26;32.50;;;14.53;;
19998;SDS011;10160;50.926;4.374;2022-12-13T14:52:55;33.17;;;17.13;;
19998;SDS011;10160;50.926;4.374;2022-12-13T14:55:23;32.17;;;15.57;;
19998;SDS011;10160;50.926;4.374;2022-12-13T14:57:58;31.67;;;15.30;;
19998;SDS011;10160;50.926;4.374;2022-12-13T15:00:38;37.83;;;16.67;;
19998;SDS011;10160;50.926;4.374;2022-12-13T15:03:04;37.50;;;17.70;;
19998;SDS011;10160;50.926;4.374;2022-12-13T15:08:14;42.57;;;18.50;;
19998;SDS011;10160;50.926;4.374;2022-12-13T15:10:44;42.67;;;19.53;;
19998;SDS011;10160;50.926;4.374;2022-12-13T15:16:04;39.13;;;18.73;;
19998;SDS011;10160;50.926;4.374;2022-12-13T15:18:34;41.10;;;17.80;;
19998;SDS011;10160;50.926;4.374;2022-12-13T15:21:00;42.03;;;18.80;;
19998;SDS011;10160;50.926;4.374;2022-12-13T15:26:05;39.13;;;19.37;;
19998;SDS011;10160;50.926;4.374;2022-12-13T15:28:34;39.10;;;18.00;;
19998;SDS011;10160;50.926;4.374;2022-12-13T15:31:03;43.57;;;18.73;;
19998;SDS011;10160;50.926;4.374;2022-12-13T15:33:30;44.53;;;20.10;;
19998;SDS011;10160;50.926;4.374;2022-12-13T15:36:11;43.37;;;19.73;;
19998;SDS011;10160;50.926;4.374;2022-12-13T15:41:25;55.87;;;24.00;;
19998;SDS011;10160;50.926;4.374;2022-12-13T15:43:54;58.60;;;26.30;;
19998;SDS011;10160;50.926;4.374;2022-12-13T15:46:27;65.30;;;27.43;;
19998;SDS011;10160;50.926;4.374;2022-12-13T15:48:55;69.50;;;27.27;;
19998;SDS011;10160;50.926;4.374;2022-12-13T15:51:23;64.80;;;26.47;;
19998;SDS011;10160;50.926;4.374;2022-12-13T15:56:34;61.83;;;25.83;;
19998;SDS011;10160;50.926;4.374;2022-12-13T15:59:29;65.47;;;26.87;;
19998;SDS011;10160;50.926;4.374;2022-12-13T16:01:57;60.37;;;27.03;;
19998;SDS011;10160;50.926;4.374;2022-12-13T16:04:24;57.97;;;26.67;;
19998;SDS011;10160;50.926;4.374;2022-12-13T16:06:55;57.87;;;25.73;;
19998;SDS011;10160;50.926;4.374;2022-12-13T16:09:22;66.77;;;28.53;;
19998;SDS011;10160;50.926;4.374;2022-12-13T16:17:04;65.47;;;29.33;;
19998;SDS011;10160;50.926;4.374;2022-12-13T16:19:32;63.63;;;29.10;;
19998;SDS011;10160;50.926;4.374;2022-12-13T16:21:58;58.63;;;28.23;;
19998;SDS011;10160;50.926;4.374;2022-12-13T16:24:24;72.30;;;31.40;;
19998;SDS011;10160;50.926;4.374;2022-12-13T16:26:49;66.27;;;29.40;;
19998;SDS011;10160;50.926;4.374;2022-12-13T16:29:16;67.97;;;30.40;;
19998;SDS011;10160;50.926;4.374;2022-12-13T16:31:43;58.07;;;27.80;;
19998;SDS011;10160;50.926;4.374;2022-12-13T16:34:09;63.70;;;29.33;;
19998;SDS011;10160;50.926;4.374;2022-12-13T16:36:36;65.60;;;28.83;;
19998;SDS011;10160;50.926;4.374;2022-12-13T16:39:02;60.73;;;26.33;;
19998;SDS011;10160;50.926;4.374;2022-12-13T16:41:29;58.73;;;29.03;;
19998;SDS011;10160;50.926;4.374;2022-12-13T16:44:02;57.73;;;26.80;;
19998;SDS011;10160;50.926;4.374;2022-12-13T16:46:30;64.13;;;28.77;;
19998;SDS011;10160;50.926;4.374;2022-12-13T16:48:55;60.93;;;27.90;;
19998;SDS011;10160;50.926;4.374;2022-12-13T16:51:21;62.07;;;27.33;;
19998;SDS011;10160;50.926;4.374;2022-12-13T16:53:47;59.37;;;26.97;;
19998;SDS011;10160;50.926;4.374;2022-12-13T16:56:13;60.87;;;27.73;;
19998;SDS011;10160;50.926;4.374;2022-12-13T16:58:45;63.23;;;27.43;;
19998;SDS011;10160;50.926;4.374;2022-12-13T17:01:12;59.57;;;28.43;;
19998;SDS011;10160;50.926;4.374;2022-12-13T17:03:39;51.33;;;25.00;;
19998;SDS011;10160;50.926;4.374;2022-12-13T17:06:05;61.13;;;28.63;;
19998;SDS011;10160;50.926;4.374;2022-12-13T17:08:34;55.00;;;26.90;;
19998;SDS011;10160;50.926;4.374;2022-12-13T17:11:00;54.87;;;25.80;;
19998;SDS011;10160;50.926;4.374;2022-12-13T17:13:25;61.63;;;27.87;;
19998;SDS011;10160;50.926;4.374;2022-12-13T17:15:51;59.63;;;28.27;;
19998;SDS011;10160;50.926;4.374;2022-12-13T17:18:17;66.53;;;29.80;;